Terminal Aerodrome Forecast
Issued by NWS

Home | Current Version | Previous Version | Text Only | Print | Product List | Glossary On
Versions: 1 2 3 4 5 6 7 8 9 10 11 12 13 14 15 16 17 18 19 20 21 22 23 24 25
000
FTPA31 PHFO 051700
TAFLNY
TAF
PHNY 051734Z 0518/0618 04007KT P6SM FEW025
     FM052100 01008KT P6SM SCT025
     FM060000 04010KT P6SM SCT025 BKN035
     FM060300 04014KT P6SM SCT025
     FM061000 05007KT P6SM FEW025
      AMD NOT SKED=

USA.gov is the U.S. government's official web portal to all federal, state and local government web resources and services.